createdAt,value
2022-10-14T00:02:00.625Z,19.02
2022-10-14T00:04:27.843Z,20.38
2022-10-14T00:06:54.935Z,19.88
2022-10-14T00:09:22.017Z,19.48
2022-10-14T00:11:49.229Z,19.75
2022-10-14T00:14:19.114Z,19.38
2022-10-14T00:16:47.932Z,20.30
2022-10-14T00:19:15.765Z,18.20
2022-10-14T00:21:44.792Z,20.15
2022-10-14T00:24:13.031Z,19.83
2022-10-14T00:26:41.120Z,19.30
2022-10-14T00:29:14.141Z,19.45
2022-10-14T00:31:41.177Z,18.73
2022-10-14T00:34:08.231Z,18.48
2022-10-14T00:36:35.248Z,18.23
2022-10-14T00:39:02.392Z,18.38
2022-10-14T00:41:32.512Z,19.13
2022-10-14T00:44:25.136Z,19.77
2022-10-14T00:46:52.392Z,19.10
2022-10-14T00:49:20.983Z,18.33
2022-10-14T00:51:54.415Z,17.05
2022-10-14T00:54:24.508Z,20.15
2022-10-14T00:56:51.728Z,18.10
2022-10-14T00:59:19.023Z,17.42
2022-10-14T01:01:46.279Z,18.02
2022-10-14T01:04:13.818Z,19.67
2022-10-14T01:07:15.081Z,19.60
2022-10-14T01:09:53.477Z,19.50
2022-10-14T01:12:45.557Z,19.42
2022-10-14T01:15:38.982Z,18.77
2022-10-14T01:18:34.193Z,18.25
2022-10-14T01:21:08.790Z,20.27
2022-10-14T01:23:46.924Z,18.95
2022-10-14T01:26:16.958Z,18.92
2022-10-14T01:28:57.454Z,18.08
2022-10-14T01:31:31.289Z,17.67
2022-10-14T01:34:02.823Z,18.48
2022-10-14T01:36:34.040Z,17.98
2022-10-14T01:39:15.957Z,20.13
2022-10-14T01:41:49.331Z,19.20
2022-10-14T01:44:17.944Z,18.40
2022-10-14T01:46:49.141Z,17.65
2022-10-14T01:49:58.586Z,17.90
2022-10-14T01:52:28.630Z,17.25
2022-10-14T01:54:59.280Z,17.33
2022-10-14T01:57:35.695Z,18.45
2022-10-14T02:00:05.228Z,17.08
2022-10-14T02:02:36.395Z,18.50
2022-10-14T02:05:10.691Z,18.40
2022-10-14T02:07:44.955Z,17.55
2022-10-14T02:10:46.830Z,18.42
2022-10-14T02:13:52.910Z,19.10
2022-10-14T02:16:27.410Z,19.50
2022-10-14T02:19:03.714Z,17.05
2022-10-14T02:21:41.961Z,17.25
2022-10-14T02:24:30.969Z,17.50
2022-10-14T02:27:01.021Z,19.02
2022-10-14T02:29:29.886Z,19.27
2022-10-14T02:31:57.899Z,17.52
2022-10-14T02:34:26.050Z,19.25
2022-10-14T02:36:54.709Z,16.95
2022-10-14T02:39:28.670Z,19.65
2022-10-14T02:41:56.036Z,18.60
2022-10-14T02:44:23.651Z,18.92
2022-10-14T02:46:50.989Z,21.10
2022-10-14T02:49:19.419Z,18.33
2022-10-14T02:51:46.629Z,17.25
2022-10-14T02:54:14.389Z,16.55
2022-10-14T02:56:41.591Z,17.05
2022-10-14T02:59:08.936Z,17.33
2022-10-14T03:01:37.751Z,16.90
2022-10-14T03:04:05.432Z,19.25
2022-10-14T03:06:32.560Z,15.65
2022-10-14T03:08:59.877Z,16.35
2022-10-14T03:11:27.034Z,17.65
2022-10-14T03:13:54.359Z,15.85
2022-10-14T03:16:21.475Z,15.68
2022-10-14T03:18:48.678Z,15.25
2022-10-14T03:21:15.865Z,15.23
2022-10-14T03:23:43.044Z,14.30
2022-10-14T03:26:13.838Z,14.43
2022-10-14T03:28:41.716Z,14.50
2022-10-14T03:31:08.896Z,14.30
2022-10-14T03:33:37.351Z,13.77
2022-10-14T03:36:04.596Z,14.93
2022-10-14T03:38:31.694Z,14.98
2022-10-14T03:40:59.263Z,15.63
2022-10-14T03:43:26.408Z,14.15
2022-10-14T03:45:53.867Z,14.60
2022-10-14T03:48:21.317Z,14.18
2022-10-14T03:50:48.670Z,14.52
2022-10-14T03:53:15.958Z,14.18
2022-10-14T03:55:43.026Z,14.27
2022-10-14T03:58:11.314Z,14.50
2022-10-14T04:00:38.478Z,14.20
2022-10-14T04:03:05.642Z,15.50
2022-10-14T04:05:34.801Z,14.35
2022-10-14T04:08:02.068Z,15.77
2022-10-14T04:10:29.631Z,15.02
2022-10-14T04:12:57.006Z,14.60
2022-10-14T04:15:24.295Z,16.10
2022-10-14T04:17:51.877Z,14.77
2022-10-14T04:20:19.277Z,15.38
2022-10-14T04:22:46.430Z,16.08
2022-10-14T04:25:13.690Z,16.95
2022-10-14T04:27:40.898Z,16.80
2022-10-14T04:30:08.582Z,16.75
2022-10-14T04:32:35.756Z,17.85
2022-10-14T04:35:02.964Z,15.68
2022-10-14T04:37:30.211Z,15.43
2022-10-14T04:39:57.349Z,14.70
2022-10-14T04:42:25.435Z,15.45
2022-10-14T04:44:52.948Z,15.20
2022-10-14T04:47:20.639Z,14.60
2022-10-14T04:49:47.787Z,15.60
2022-10-14T04:52:15.208Z,14.57
2022-10-14T04:54:42.466Z,16.80
2022-10-14T04:57:10.105Z,13.98
2022-10-14T04:59:38.696Z,18.00
2022-10-14T05:02:05.924Z,14.18
2022-10-14T05:04:33.417Z,15.25
2022-10-14T05:07:00.569Z,16.33
2022-10-14T05:09:27.770Z,14.77
2022-10-14T05:11:54.920Z,16.23
2022-10-14T05:14:22.904Z,15.02
2022-10-14T05:16:50.019Z,14.82
2022-10-14T05:19:17.168Z,15.45
2022-10-14T05:21:44.370Z,15.02
2022-10-14T05:24:11.566Z,14.02
2022-10-14T05:26:38.755Z,15.88
2022-10-14T05:29:06.016Z,15.20
2022-10-14T05:31:33.221Z,15.07
2022-10-14T05:34:00.350Z,15.25
2022-10-14T05:36:27.514Z,14.95
2022-10-14T05:38:58.630Z,14.38
2022-10-14T05:41:26.515Z,14.27
2022-10-14T05:43:53.797Z,16.13
2022-10-14T05:46:21.295Z,14.10
2022-10-14T05:48:48.431Z,13.80
2022-10-14T05:51:20.993Z,15.13
2022-10-14T05:53:48.737Z,15.05
2022-10-14T05:56:15.893Z,14.07
2022-10-14T05:58:43.013Z,14.20
2022-10-14T06:01:11.085Z,14.65
2022-10-14T06:03:38.214Z,13.50
2022-10-14T06:06:05.490Z,14.10
2022-10-14T06:08:32.638Z,15.73
2022-10-14T06:11:03.055Z,14.55
2022-10-14T06:13:30.703Z,13.75
2022-10-14T06:16:06.190Z,14.38
2022-10-14T06:18:34.171Z,14.45
2022-10-14T06:21:01.733Z,14.95
2022-10-14T06:23:29.562Z,14.15
2022-10-14T06:25:56.896Z,14.30
2022-10-14T06:28:24.009Z,14.45
2022-10-14T06:30:54.676Z,16.52
2022-10-14T06:33:22.677Z,15.48
2022-10-14T06:35:50.288Z,16.83
2022-10-14T06:38:18.471Z,16.08
2022-10-14T06:40:45.730Z,15.40
2022-10-14T06:43:12.892Z,15.65
2022-10-14T06:45:39.981Z,16.05
2022-10-14T06:48:07.282Z,15.55
2022-10-14T06:50:34.396Z,17.40
2022-10-14T06:53:02.871Z,15.80
2022-10-14T06:55:30.711Z,15.80
2022-10-14T06:57:58.286Z,16.08
2022-10-14T07:00:25.382Z,16.33
2022-10-14T07:02:53.177Z,16.02
2022-10-14T07:05:20.814Z,16.60
2022-10-14T07:07:47.983Z,15.80
2022-10-14T07:10:15.226Z,15.38
2022-10-14T07:12:43.364Z,16.08
2022-10-14T07:15:10.885Z,15.95
2022-10-14T07:17:38.388Z,15.40
2022-10-14T07:20:06.278Z,16.27
2022-10-14T07:22:38.669Z,16.33
2022-10-14T07:25:07.154Z,17.38
2022-10-14T07:27:34.346Z,16.35
2022-10-14T07:30:04.258Z,16.15
2022-10-14T07:32:57.178Z,15.77
2022-10-14T07:35:28.404Z,15.50
2022-10-14T07:37:57.593Z,16.45
2022-10-14T07:40:24.851Z,17.33
2022-10-14T07:42:52.007Z,16.38
2022-10-14T07:45:21.053Z,17.90
2022-10-14T07:47:50.313Z,17.17
2022-10-14T07:50:17.860Z,17.85
2022-10-14T07:52:45.125Z,17.95
2022-10-14T07:55:12.498Z,17.45
2022-10-14T07:57:39.746Z,17.65
2022-10-14T08:00:10.047Z,17.50
2022-10-14T08:02:37.344Z,18.45
2022-10-14T08:05:25.742Z,15.50
2022-10-14T08:07:52.187Z,17.80
2022-10-14T08:10:19.446Z,19.90
2022-10-14T08:12:47.924Z,16.17
2022-10-14T08:15:15.416Z,16.48
2022-10-14T08:17:43.048Z,16.23
2022-10-14T08:20:11.109Z,15.85
2022-10-14T08:22:39.492Z,17.27
2022-10-14T08:25:06.903Z,19.02
2022-10-14T08:27:35.024Z,18.92
2022-10-14T08:30:10.272Z,16.80
2022-10-14T08:32:38.704Z,18.63
2022-10-14T08:35:06.415Z,18.10
2022-10-14T08:37:33.603Z,19.10
2022-10-14T08:40:00.800Z,16.85
2022-10-14T08:42:49.686Z,17.83
2022-10-14T08:45:33.071Z,16.85
2022-10-14T08:48:04.994Z,17.40
2022-10-14T08:50:48.250Z,16.60
2022-10-14T08:53:22.856Z,18.25
2022-10-14T08:55:57.518Z,19.40
2022-10-14T08:58:46.561Z,17.23
2022-10-14T09:01:25.653Z,16.50
2022-10-14T09:04:03.351Z,17.48
2022-10-14T09:06:32.702Z,16.63
2022-10-14T09:09:18.237Z,18.17
2022-10-14T09:11:48.834Z,16.70
2022-10-14T09:14:18.734Z,16.48
2022-10-14T09:16:51.712Z,17.27
2022-10-14T09:19:32.331Z,16.55
2022-10-14T09:22:01.326Z,17.00
2022-10-14T09:24:36.829Z,18.27
2022-10-14T09:29:48.532Z,16.73
2022-10-14T09:36:31.838Z,16.10
2022-10-14T09:39:03.637Z,17.15
2022-10-14T09:41:33.949Z,15.57
2022-10-14T09:44:25.738Z,14.70
2022-10-14T09:46:58.897Z,15.27
2022-10-14T09:49:47.081Z,16.73
2022-10-14T09:52:25.059Z,15.48
2022-10-14T09:54:57.306Z,15.63
2022-10-14T09:57:25.476Z,15.18
2022-10-14T10:00:00.802Z,16.70
2022-10-14T10:02:43.472Z,16.33
2022-10-14T10:05:37.005Z,16.95
2022-10-14T10:08:12.569Z,16.42
2022-10-14T10:10:40.124Z,16.73
2022-10-14T10:13:32.690Z,15.45
2022-10-14T10:16:01.962Z,14.02
2022-10-14T10:18:29.260Z,14.10
2022-10-14T10:21:15.712Z,16.10
2022-10-14T10:23:56.730Z,16.70
2022-10-14T10:26:31.876Z,16.83
2022-10-14T10:29:02.617Z,15.00
2022-10-14T10:31:48.505Z,13.82
2022-10-14T10:34:24.858Z,12.93
2022-10-14T10:37:01.827Z,14.63
2022-10-14T10:39:44.217Z,15.55
2022-10-14T10:42:29.738Z,15.30
2022-10-14T10:45:18.684Z,13.75
2022-10-14T10:48:01.618Z,14.88
2022-10-14T10:50:36.310Z,13.02
2022-10-14T10:53:09.499Z,13.27
2022-10-14T10:55:58.490Z,13.38
2022-10-14T10:58:41.405Z,13.30
2022-10-14T11:01:36.924Z,13.93
2022-10-14T11:04:22.404Z,13.40
2022-10-14T11:07:56.619Z,11.93
2022-10-14T11:11:08.825Z,13.02
2022-10-14T11:13:46.306Z,15.43
2022-10-14T11:16:26.800Z,13.02
2022-10-14T11:19:14.750Z,16.17
2022-10-14T11:21:45.319Z,13.90
2022-10-14T11:24:40.380Z,14.68
2022-10-14T11:27:24.001Z,13.93
2022-10-14T11:30:10.066Z,13.90
2022-10-14T11:32:57.120Z,14.88
2022-10-14T11:38:20.090Z,14.65
2022-10-14T11:41:32.421Z,11.82
2022-10-14T11:44:32.859Z,11.40
2022-10-14T11:47:05.877Z,13.63
2022-10-14T11:49:40.247Z,14.07
2022-10-14T11:52:12.070Z,12.98
2022-10-14T11:54:52.659Z,13.77
2022-10-14T11:57:50.806Z,13.15
2022-10-14T12:00:22.249Z,12.85
2022-10-14T12:02:56.735Z,11.70
2022-10-14T12:05:44.823Z,12.48
2022-10-14T12:08:43.973Z,9.48
2022-10-14T12:11:26.044Z,8.38
2022-10-14T12:13:57.609Z,10.35
2022-10-14T12:16:24.784Z,11.23
2022-10-14T12:18:56.216Z,11.23
2022-10-14T12:21:40.918Z,10.18
2022-10-14T12:24:14.578Z,10.82
2022-10-14T12:26:57.755Z,10.23
2022-10-14T12:29:27.838Z,10.00
2022-10-14T12:32:21.648Z,9.75
2022-10-14T12:34:56.466Z,10.75
2022-10-14T12:37:31.900Z,11.48
2022-10-14T12:40:02.492Z,10.80
2022-10-14T12:42:31.029Z,10.70
2022-10-14T12:45:01.554Z,10.45
2022-10-14T12:47:35.207Z,8.57
2022-10-14T12:50:22.460Z,10.50
2022-10-14T12:52:57.639Z,10.85
2022-10-14T12:55:26.539Z,10.57
2022-10-14T12:58:06.224Z,9.70
2022-10-14T13:00:39.711Z,9.07
2022-10-14T13:03:21.943Z,9.13
2022-10-14T13:05:53.272Z,8.95
2022-10-14T13:08:23.868Z,8.10
2022-10-14T13:11:02.522Z,7.82
2022-10-14T13:13:59.989Z,7.35
2022-10-14T13:16:27.232Z,8.40
2022-10-14T13:18:58.028Z,7.90
2022-10-14T13:21:38.649Z,7.03
2022-10-14T13:24:21.619Z,7.45
2022-10-14T13:26:54.960Z,7.13
2022-10-14T13:29:37.709Z,6.85
2022-10-14T13:32:27.207Z,7.63
2022-10-14T13:35:24.851Z,6.30
2022-10-14T13:38:00.754Z,7.28
2022-10-14T13:40:53.931Z,6.65
2022-10-14T13:43:37.817Z,7.22
2022-10-14T13:46:18.271Z,6.57
2022-10-14T13:48:48.151Z,6.75
2022-10-14T13:51:31.864Z,5.88
2022-10-14T13:54:32.436Z,5.47
2022-10-14T13:57:38.706Z,6.43
2022-10-14T14:02:54.552Z,5.88
2022-10-14T14:05:24.287Z,5.13
2022-10-14T14:11:03.597Z,5.75
2022-10-14T14:13:31.113Z,5.80
2022-10-14T14:15:58.831Z,5.72
2022-10-14T14:18:33.850Z,6.00
2022-10-14T14:21:13.479Z,6.63
2022-10-14T14:23:58.482Z,5.40
2022-10-14T14:26:36.280Z,6.80
2022-10-14T14:29:05.680Z,6.03
2022-10-14T14:31:54.653Z,5.90
2022-10-14T14:34:22.840Z,5.22
2022-10-14T14:36:57.863Z,6.18
2022-10-14T14:39:36.526Z,6.35
2022-10-14T14:42:04.371Z,5.82
2022-10-14T14:44:33.769Z,5.43
2022-10-14T14:47:03.183Z,6.57
2022-10-14T14:49:33.080Z,6.25
2022-10-14T14:52:07.794Z,6.28
2022-10-14T14:54:44.822Z,6.07
2022-10-14T14:57:23.115Z,6.45
2022-10-14T15:00:04.801Z,5.68
2022-10-14T15:02:34.263Z,6.25
2022-10-14T15:05:08.010Z,5.18
2022-10-14T15:07:36.567Z,5.57
2022-10-14T15:10:07.149Z,5.10
2022-10-14T15:12:42.563Z,5.55
2022-10-14T15:15:26.846Z,5.18
2022-10-14T15:18:16.655Z,5.18
2022-10-14T15:20:44.363Z,4.28
2022-10-14T15:23:38.111Z,5.35
2022-10-14T15:26:36.438Z,5.30
2022-10-14T15:29:03.925Z,4.40
2022-10-14T15:31:32.763Z,5.80
2022-10-14T15:34:00.803Z,4.90
2022-10-14T15:36:33.209Z,5.43
2022-10-14T15:39:01.670Z,5.13
2022-10-14T15:41:29.631Z,5.32
2022-10-14T15:43:57.213Z,5.30
2022-10-14T15:46:48.215Z,4.75
2022-10-14T15:49:20.372Z,5.72
2022-10-14T15:51:49.542Z,5.93
2022-10-14T15:54:17.032Z,4.80
2022-10-14T15:56:44.681Z,5.18
2022-10-14T15:59:16.177Z,5.70
2022-10-14T16:01:45.310Z,5.45
2022-10-14T16:04:22.423Z,5.85
2022-10-14T16:06:51.259Z,5.60
2022-10-14T16:09:18.833Z,5.32
2022-10-14T16:11:46.189Z,5.38
2022-10-14T16:14:13.792Z,5.78
2022-10-14T16:16:45.710Z,5.43
2022-10-14T16:19:13.193Z,6.75
2022-10-14T16:21:40.793Z,6.80
2022-10-14T16:26:39.237Z,6.85
2022-10-14T16:29:06.497Z,7.28
2022-10-14T16:31:33.957Z,6.25
2022-10-14T16:34:02.159Z,6.40
2022-10-14T16:36:29.543Z,6.80
2022-10-14T16:38:57.239Z,6.63
2022-10-14T16:41:25.206Z,6.30
2022-10-14T16:43:52.571Z,6.85
2022-10-14T16:46:20.169Z,5.63
2022-10-14T16:48:47.652Z,6.07
2022-10-14T16:51:15.582Z,5.85
2022-10-14T16:53:46.812Z,7.82
2022-10-14T16:56:37.104Z,6.22
2022-10-14T16:59:04.940Z,6.10
2022-10-14T17:01:32.526Z,7.03
2022-10-14T17:04:00.033Z,6.47
2022-10-14T17:06:27.861Z,7.20
2022-10-14T17:08:55.237Z,6.30
2022-10-14T17:11:22.723Z,8.23
2022-10-14T17:13:56.797Z,6.25
2022-10-14T17:16:24.266Z,8.30
2022-10-14T17:18:52.861Z,7.43
2022-10-14T17:21:20.336Z,6.95
2022-10-14T17:23:48.148Z,8.02
2022-10-14T17:26:20.430Z,6.88
2022-10-14T17:28:48.515Z,8.30
2022-10-14T17:31:20.912Z,7.07
2022-10-14T17:33:49.176Z,7.93
2022-10-14T17:36:23.196Z,7.15
2022-10-14T17:38:51.279Z,8.75
2022-10-14T17:41:19.861Z,8.23
2022-10-14T17:43:49.619Z,7.57
2022-10-14T17:46:20.882Z,8.13
2022-10-14T17:48:50.689Z,8.35
2022-10-14T17:51:18.406Z,8.63
2022-10-14T17:53:46.024Z,8.63
2022-10-14T17:56:13.381Z,8.82
2022-10-14T17:58:41.122Z,9.18
2022-10-14T18:01:11.122Z,8.63
2022-10-14T18:03:42.070Z,9.70
2022-10-14T18:06:20.942Z,9.63
2022-10-14T18:08:56.585Z,9.15
2022-10-14T18:13:58.155Z,10.10
2022-10-14T18:16:26.951Z,9.35
2022-10-14T18:18:55.025Z,10.32
2022-10-14T18:21:22.395Z,10.10
2022-10-14T18:23:49.869Z,10.10
2022-10-14T18:26:19.535Z,9.55
2022-10-14T18:28:51.336Z,9.02
2022-10-14T18:31:24.675Z,9.38
2022-10-14T18:33:54.796Z,10.35
2022-10-14T18:36:25.279Z,9.88
2022-10-14T18:38:54.704Z,10.18
2022-10-14T18:41:22.886Z,9.20
2022-10-14T18:43:50.963Z,9.25
2022-10-14T18:46:23.486Z,9.88
2022-10-14T18:48:52.775Z,8.93
2022-10-14T18:51:25.766Z,9.52
2022-10-14T18:53:56.012Z,9.20
2022-10-14T18:56:25.777Z,9.75
2022-10-14T18:58:55.829Z,10.00
2022-10-14T19:01:23.820Z,9.60
2022-10-14T19:03:51.458Z,9.35
2022-10-14T19:06:19.426Z,8.30
2022-10-14T19:08:47.403Z,9.13
2022-10-14T19:11:19.779Z,8.93
2022-10-14T19:13:49.068Z,10.18
2022-10-14T19:16:18.826Z,9.55
2022-10-14T19:18:46.800Z,9.90
2022-10-14T19:21:15.713Z,9.75
2022-10-14T19:23:43.912Z,9.52
2022-10-14T19:26:19.818Z,9.40
2022-10-14T19:28:49.916Z,9.60
2022-10-14T19:31:22.195Z,10.00
2022-10-14T19:33:49.920Z,10.10
2022-10-14T19:36:18.363Z,9.07
2022-10-14T19:38:52.329Z,9.88
2022-10-14T19:41:19.921Z,9.30
2022-10-14T19:43:47.404Z,10.10
2022-10-14T19:46:14.883Z,9.73
2022-10-14T19:48:42.489Z,7.93
2022-10-14T19:51:10.331Z,8.80
2022-10-14T19:53:38.656Z,9.23
2022-10-14T19:56:11.669Z,8.73
2022-10-14T19:58:43.891Z,8.77
2022-10-14T20:01:15.221Z,7.45
2022-10-14T20:03:42.981Z,7.88
2022-10-14T20:06:11.900Z,7.57
2022-10-14T20:08:40.226Z,7.43
2022-10-14T20:11:10.467Z,7.93
2022-10-14T20:13:38.425Z,7.20
2022-10-14T20:16:08.430Z,7.43
2022-10-14T20:18:36.149Z,7.95
2022-10-14T20:21:05.481Z,8.73
2022-10-14T20:23:38.489Z,8.15
2022-10-14T20:26:17.521Z,7.72
2022-10-14T20:28:45.496Z,8.43
2022-10-14T20:31:14.795Z,8.18
2022-10-14T20:33:42.282Z,8.48
2022-10-14T20:36:15.045Z,8.52
2022-10-14T20:38:43.252Z,8.25
2022-10-14T20:41:16.374Z,8.23
2022-10-14T20:43:44.798Z,8.52
2022-10-14T20:46:13.032Z,8.38
2022-10-14T20:48:40.728Z,10.10
2022-10-14T20:51:10.624Z,9.57
2022-10-14T20:53:38.311Z,10.05
2022-10-14T20:56:08.581Z,10.25
2022-10-14T20:58:36.169Z,10.48
2022-10-14T21:01:17.424Z,10.55
2022-10-14T21:03:46.493Z,9.45
2022-10-14T21:06:20.351Z,10.75
2022-10-14T21:08:49.745Z,10.23
2022-10-14T21:11:23.117Z,10.35
2022-10-14T21:13:52.985Z,10.70
2022-10-14T21:16:23.941Z,11.77
2022-10-14T21:18:56.798Z,12.07
2022-10-14T21:21:31.513Z,10.57
2022-10-14T21:23:59.587Z,12.38
2022-10-14T21:26:27.552Z,12.27
2022-10-14T21:28:55.339Z,12.38
2022-10-14T21:31:23.119Z,12.13
2022-10-14T21:34:04.216Z,13.38
2022-10-14T21:36:34.280Z,12.07
2022-10-14T21:39:06.207Z,12.20
2022-10-14T21:41:34.999Z,12.90
2022-10-14T21:44:02.504Z,13.80
2022-10-14T21:46:30.208Z,13.02
2022-10-14T21:48:58.290Z,13.07
2022-10-14T21:51:28.288Z,14.15
2022-10-14T21:53:56.256Z,13.93
2022-10-14T21:56:24.210Z,13.88
2022-10-14T21:58:52.296Z,13.95
2022-10-14T22:01:22.220Z,13.88
2022-10-14T22:03:58.176Z,14.63
2022-10-14T22:06:26.503Z,13.55
2022-10-14T22:08:55.657Z,15.10
2022-10-14T22:11:28.668Z,15.13
2022-10-14T22:13:58.306Z,14.95
2022-10-14T22:16:26.619Z,15.35
2022-10-14T22:18:54.104Z,15.98
2022-10-14T22:21:23.629Z,16.30
2022-10-14T22:23:51.466Z,15.98
2022-10-14T22:26:20.994Z,15.90
2022-10-14T22:28:49.053Z,15.65
2022-10-14T22:31:19.693Z,16.83
2022-10-14T22:33:47.284Z,17.10
2022-10-14T22:36:19.506Z,16.05
2022-10-14T22:41:18.006Z,15.90
2022-10-14T22:43:47.195Z,15.70
2022-10-14T22:46:15.735Z,16.02
2022-10-14T22:48:43.202Z,15.65
2022-10-14T22:51:13.379Z,15.95
2022-10-14T22:53:41.896Z,15.30
2022-10-14T22:56:12.017Z,15.38
2022-10-14T22:58:39.747Z,16.52
2022-10-14T23:01:12.617Z,16.30
2022-10-14T23:03:40.210Z,15.70
2022-10-14T23:06:10.095Z,17.08
2022-10-14T23:08:39.259Z,16.80
2022-10-14T23:11:07.256Z,15.68
2022-10-14T23:13:35.068Z,16.55
2022-10-14T23:16:07.101Z,16.55
2022-10-14T23:18:37.178Z,16.42
2022-10-14T23:21:13.831Z,17.73
2022-10-14T23:23:41.797Z,17.90
2022-10-14T23:26:11.204Z,17.23
2022-10-14T23:28:39.265Z,17.75
2022-10-14T23:31:11.429Z,16.77
2022-10-14T23:33:39.186Z,16.55
2022-10-14T23:36:09.273Z,15.73
2022-10-14T23:38:37.121Z,16.45
2022-10-14T23:41:05.193Z,17.20
2022-10-14T23:43:33.158Z,16.48
2022-10-14T23:46:01.026Z,17.10
2022-10-14T23:48:29.248Z,16.50
2022-10-14T23:50:57.285Z,16.50
2022-10-14T23:53:28.613Z,16.75
2022-10-14T23:55:56.929Z,16.27
2022-10-14T23:58:25.280Z,15.90
